Baxley, Georgia
Current Conditions -  °F | °C
As of 1:15 PM on Friday 28 Nov 2014 (Local Time) from KBHC Reporting Station
Clear Clear  
Wind Chill: 50°   Ceiling: Unl
Heat Index: 50°   Visibility: 10mi
Dew Point: 30°   Wind: 7mph
Humidity: 47%   Direction: 10°N
Pressure: 30.34"   Gusts: NA
Location:  31.76°N, 82.35°W
Report Text: KBHC 281815Z AUTO 01006KT 10SM CLR 10/M01 A3034 RMK AO2
Loading
Personal Weather Stations






























Interactive Weather Map New forecast layout! Learn more

10-Day Weather Forecast

Advertisements
Track Severe Weather on mobile